createdAt,value
2022-08-01T00:00:59.186Z,1002.39
2022-08-01T00:01:59.184Z,1002.36
2022-08-01T00:02:59.219Z,1002.46
2022-08-01T00:03:59.161Z,1002.48
2022-08-01T00:04:59.141Z,1002.41
2022-08-01T00:05:59.140Z,1002.46
2022-08-01T00:06:59.119Z,1002.47
2022-08-01T00:07:59.114Z,1002.46
2022-08-01T00:08:59.106Z,1002.45
2022-08-01T00:09:59.104Z,1002.43
2022-08-01T00:10:59.084Z,1002.49
2022-08-01T00:11:59.070Z,1002.53
2022-08-01T00:12:59.058Z,1002.52
2022-08-01T00:13:59.046Z,1002.48
2022-08-01T00:14:59.058Z,1002.49
2022-08-01T00:15:59.033Z,1002.45
2022-08-01T00:16:59.055Z,1002.49
2022-08-01T00:17:59.050Z,1002.44
2022-08-01T00:18:58.993Z,1002.48
2022-08-01T00:19:58.984Z,1002.45
2022-08-01T00:20:59.011Z,1002.49
2022-08-01T00:21:58.986Z,1002.42
2022-08-01T00:22:58.953Z,1002.43
2022-08-01T00:23:58.950Z,1002.5
2022-08-01T00:24:58.930Z,1002.52
2022-08-01T00:25:58.918Z,1002.53
2022-08-01T00:26:58.914Z,1002.5
2022-08-01T00:27:58.901Z,1002.49
2022-08-01T00:28:58.945Z,1002.5
2022-08-01T00:29:58.877Z,1002.45
2022-08-01T00:30:58.866Z,1002.51
2022-08-01T00:31:58.866Z,1002.52
2022-08-01T00:32:58.847Z,1002.45
2022-08-01T00:33:58.860Z,1002.49
2022-08-01T00:34:58.864Z,1002.43
2022-08-01T00:35:58.829Z,1002.45
2022-08-01T00:36:58.805Z,1002.46
2022-08-01T00:37:58.788Z,1002.51
2022-08-01T00:38:58.781Z,1002.5
2022-08-01T00:39:58.767Z,1002.5
2022-08-01T00:40:58.760Z,1002.54
2022-08-01T00:41:58.748Z,1002.51
2022-08-01T00:42:58.738Z,1002.48
2022-08-01T00:43:58.728Z,1002.48
2022-08-01T00:44:58.747Z,1002.49
2022-08-01T00:45:58.701Z,1002.53
2022-08-01T00:46:58.688Z,1002.44
2022-08-01T00:47:58.680Z,1002.48
2022-08-01T00:48:58.668Z,1002.5
2022-08-01T00:49:58.669Z,1002.42
2022-08-01T00:50:58.661Z,1002.46
2022-08-01T00:51:58.638Z,1002.41
2022-08-01T00:52:58.623Z,1002.42
2022-08-01T00:53:58.615Z,1002.45
2022-08-01T00:54:58.604Z,1002.43
2022-08-01T00:55:58.595Z,1002.44
2022-08-01T00:56:58.589Z,1002.42
2022-08-01T00:57:58.581Z,1002.42
2022-08-01T00:58:58.563Z,1002.44
2022-08-01T00:59:58.550Z,1002.5
2022-08-01T01:00:58.542Z,1002.46
2022-08-01T01:01:58.541Z,1002.47
2022-08-01T01:02:58.519Z,1002.44
2022-08-01T01:03:58.509Z,1002.43
2022-08-01T01:04:58.501Z,1002.42
2022-08-01T01:05:58.491Z,1002.47
2022-08-01T01:06:58.480Z,1002.47
2022-08-01T01:07:58.470Z,1002.46
2022-08-01T01:08:58.455Z,1002.5
2022-08-01T01:09:58.442Z,1002.49
2022-08-01T01:10:58.432Z,1002.49
2022-08-01T01:11:58.421Z,1002.43
2022-08-01T01:12:58.409Z,1002.51
2022-08-01T01:13:58.404Z,1002.47
2022-08-01T01:14:58.396Z,1002.45
2022-08-01T01:15:58.380Z,1002.51
2022-08-01T01:16:58.363Z,1002.5
2022-08-01T01:17:58.355Z,1002.52
2022-08-01T01:18:58.347Z,1002.55
2022-08-01T01:19:58.334Z,1002.54
2022-08-01T01:20:58.329Z,1002.52
2022-08-01T01:21:58.316Z,1002.54
2022-08-01T01:22:58.313Z,1002.44
2022-08-01T01:23:58.289Z,1002.44
2022-08-01T01:24:58.283Z,1002.49
2022-08-01T01:25:58.270Z,1002.48
2022-08-01T01:26:58.261Z,1002.47
2022-08-01T01:27:58.247Z,1002.52
2022-08-01T01:28:58.238Z,1002.48
2022-08-01T01:29:58.236Z,1002.51
2022-08-01T01:30:58.224Z,1002.47
2022-08-01T01:31:58.206Z,1002.51
2022-08-01T01:32:58.201Z,1002.48
2022-08-01T01:33:58.185Z,1002.51
2022-08-01T01:34:58.175Z,1002.54
2022-08-01T01:35:58.169Z,1002.56
2022-08-01T01:36:58.157Z,1002.56
2022-08-01T01:37:58.155Z,1002.56
2022-08-01T01:38:58.139Z,1002.56
2022-08-01T01:39:58.141Z,1002.54
2022-08-01T01:40:58.120Z,1002.56
2022-08-01T01:41:58.108Z,1002.56
2022-08-01T01:42:58.106Z,1002.52
2022-08-01T01:43:58.076Z,1002.52
2022-08-01T01:44:58.080Z,1002.51
2022-08-01T01:45:58.058Z,1002.55
2022-08-01T01:46:58.061Z,1002.5
2022-08-01T01:47:58.039Z,1002.49
2022-08-01T01:48:58.022Z,1002.53
2022-08-01T01:49:58.011Z,1002.55
2022-08-01T01:50:57.998Z,1002.59
2022-08-01T01:51:57.996Z,1002.55
2022-08-01T01:52:57.982Z,1002.57
2022-08-01T01:53:57.972Z,1002.6
2022-08-01T01:54:57.973Z,1002.58
2022-08-01T01:55:57.949Z,1002.59
2022-08-01T01:56:57.940Z,1002.61
2022-08-01T01:57:57.934Z,1002.55
2022-08-01T01:58:57.913Z,1002.57
2022-08-01T01:59:57.900Z,1002.57
2022-08-01T02:00:57.895Z,1002.66
2022-08-01T02:01:57.884Z,1002.62
2022-08-01T02:02:57.873Z,1002.6
2022-08-01T02:03:57.856Z,1002.59
2022-08-01T02:04:57.929Z,1002.58
2022-08-01T02:05:57.844Z,1002.65
2022-08-01T02:06:57.827Z,1002.63
2022-08-01T02:07:57.824Z,1002.59
2022-08-01T02:08:57.817Z,1002.58
2022-08-01T02:09:57.798Z,1002.69
2022-08-01T02:10:57.793Z,1002.65
2022-08-01T02:11:57.775Z,1002.65
2022-08-01T02:12:57.759Z,1002.62
2022-08-01T02:13:57.753Z,1002.71
2022-08-01T02:14:57.750Z,1002.68
2022-08-01T02:15:57.745Z,1002.65
2022-08-01T02:16:57.721Z,1002.7
2022-08-01T02:17:57.706Z,1002.68
2022-08-01T02:18:57.694Z,1002.69
2022-08-01T02:19:57.684Z,1002.74
2022-08-01T02:20:57.708Z,1002.66
2022-08-01T02:21:57.713Z,1002.74
2022-08-01T02:22:57.663Z,1002.71
2022-08-01T02:23:57.642Z,1002.73
2022-08-01T02:24:57.645Z,1002.71
2022-08-01T02:25:57.622Z,1002.76
2022-08-01T02:26:57.610Z,1002.73
2022-08-01T02:27:57.646Z,1002.73
2022-08-01T02:28:57.592Z,1002.76
2022-08-01T02:29:57.575Z,1002.75
2022-08-01T02:30:57.571Z,1002.72
2022-08-01T02:31:57.556Z,1002.72
2022-08-01T02:32:57.553Z,1002.77
2022-08-01T02:33:57.535Z,1002.8
2022-08-01T02:34:57.528Z,1002.76
2022-08-01T02:35:57.522Z,1002.76
2022-08-01T02:36:57.504Z,1002.77
2022-08-01T02:37:57.601Z,1002.74
2022-08-01T02:38:57.484Z,1002.71
2022-08-01T02:39:57.468Z,1002.71
2022-08-01T02:40:57.463Z,1002.75
2022-08-01T02:41:57.454Z,1002.74
2022-08-01T02:42:57.435Z,1002.77
2022-08-01T02:43:57.437Z,1002.74
2022-08-01T02:44:57.426Z,1002.71
2022-08-01T02:45:57.406Z,1002.77
2022-08-01T02:46:57.392Z,1002.68
2022-08-01T02:47:57.384Z,1002.74
2022-08-01T02:48:57.374Z,1002.76
2022-08-01T02:49:57.361Z,1002.72
2022-08-01T02:50:57.355Z,1002.71
2022-08-01T02:51:57.345Z,1002.78
2022-08-01T02:52:57.329Z,1002.76
2022-08-01T02:53:57.322Z,1002.78
2022-08-01T02:54:57.312Z,1002.77
2022-08-01T02:55:57.299Z,1002.71
2022-08-01T02:56:57.285Z,1002.73
2022-08-01T02:57:57.279Z,1002.74
2022-08-01T02:58:57.282Z,1002.75
2022-08-01T02:59:57.257Z,1002.76
2022-08-01T03:00:57.254Z,1002.81
2022-08-01T03:01:57.263Z,1002.74
2022-08-01T03:02:57.229Z,1002.85
2022-08-01T03:03:57.208Z,1002.79
2022-08-01T03:04:57.203Z,1002.79
2022-08-01T03:05:57.195Z,1002.8
2022-08-01T03:06:57.189Z,1002.8
2022-08-01T03:07:57.179Z,1002.8
2022-08-01T03:08:57.166Z,1002.84
2022-08-01T03:09:57.151Z,1002.77
2022-08-01T03:10:57.133Z,1002.84
2022-08-01T03:11:57.130Z,1002.84
2022-08-01T03:12:57.120Z,1002.8
2022-08-01T03:13:57.112Z,1002.88
2022-08-01T03:14:57.096Z,1002.89
2022-08-01T03:15:57.081Z,1002.87
2022-08-01T03:16:57.072Z,1002.97
2022-08-01T03:17:57.061Z,1002.92
2022-08-01T03:18:57.054Z,1002.93
2022-08-01T03:19:57.039Z,1002.96
2022-08-01T03:20:57.039Z,1002.87
2022-08-01T03:21:57.019Z,1002.86
2022-08-01T03:22:57.007Z,1002.85
2022-08-01T03:23:57.003Z,1002.94
2022-08-01T03:24:56.985Z,1002.93
2022-08-01T03:25:56.973Z,1002.9
2022-08-01T03:26:56.967Z,1002.92
2022-08-01T03:27:56.951Z,1002.91
2022-08-01T03:28:56.940Z,1002.99
2022-08-01T03:29:56.929Z,1002.95
2022-08-01T03:30:56.923Z,1002.89
2022-08-01T03:31:56.910Z,1002.99
2022-08-01T03:32:56.904Z,1003.02
2022-08-01T03:33:56.891Z,1003.04
2022-08-01T03:34:56.939Z,1002.99
2022-08-01T03:35:56.872Z,1002.99
2022-08-01T03:36:56.852Z,1003.01
2022-08-01T03:38:56.832Z,1002.97
2022-08-01T03:39:56.822Z,1003.01
2022-08-01T03:40:56.823Z,1002.94
2022-08-01T03:41:56.804Z,1002.99
2022-08-01T03:42:56.791Z,1003.01
2022-08-01T03:43:56.794Z,1003.04
2022-08-01T03:44:56.775Z,1003.04
2022-08-01T03:45:56.765Z,1003.09
2022-08-01T03:46:56.747Z,1003.05
2022-08-01T03:47:56.738Z,1003.03
2022-08-01T03:48:56.727Z,1003.08
2022-08-01T03:49:56.716Z,1003.07
2022-08-01T03:50:56.703Z,1003.06
2022-08-01T03:51:56.694Z,1003.04
2022-08-01T03:52:56.688Z,1003.07
2022-08-01T03:53:56.679Z,1003.11
2022-08-01T03:54:56.658Z,1003.06
2022-08-01T03:55:56.648Z,1003.04
2022-08-01T03:56:56.636Z,1003.05
2022-08-01T03:57:56.638Z,1003.06
2022-08-01T03:58:56.632Z,1003.1
2022-08-01T03:59:56.609Z,1003.09
2022-08-01T04:00:56.599Z,1003.12
2022-08-01T04:01:56.601Z,1003.15
2022-08-01T04:02:56.579Z,1003.14
2022-08-01T04:03:56.562Z,1003.17
2022-08-01T04:04:56.560Z,1003.15
2022-08-01T04:05:56.545Z,1003.16
2022-08-01T04:06:56.531Z,1003.2
2022-08-01T04:07:56.517Z,1003.14
2022-08-01T04:08:56.510Z,1003.18
2022-08-01T04:09:56.493Z,1003.17
2022-08-01T04:10:56.488Z,1003.15
2022-08-01T04:11:56.481Z,1003.19
2022-08-01T04:12:56.465Z,1003.22
2022-08-01T04:13:56.458Z,1003.21
2022-08-01T04:14:56.450Z,1003.18
2022-08-01T04:15:56.453Z,1003.22
2022-08-01T04:16:56.425Z,1003.18
2022-08-01T04:17:56.410Z,1003.22
2022-08-01T04:18:56.397Z,1003.23
2022-08-01T04:19:56.389Z,1003.2
2022-08-01T04:20:56.379Z,1003.24
2022-08-01T04:21:56.376Z,1003.24
2022-08-01T04:22:56.354Z,1003.25
2022-08-01T04:23:56.346Z,1003.28
2022-08-01T04:24:56.349Z,1003.26
2022-08-01T04:25:56.330Z,1003.29
2022-08-01T04:26:56.313Z,1003.31
2022-08-01T04:27:56.323Z,1003.25
2022-08-01T04:28:56.316Z,1003.28
2022-08-01T04:29:56.289Z,1003.3
2022-08-01T04:30:56.284Z,1003.25
2022-08-01T04:31:56.257Z,1003.3
2022-08-01T04:32:56.249Z,1003.3
2022-08-01T04:33:56.245Z,1003.28
2022-08-01T04:34:56.230Z,1003.3
2022-08-01T04:35:56.218Z,1003.38
2022-08-01T04:36:56.206Z,1003.3
2022-08-01T04:37:56.202Z,1003.36
2022-08-01T04:38:56.185Z,1003.37
2022-08-01T04:39:56.179Z,1003.33
2022-08-01T04:40:56.186Z,1003.36
2022-08-01T04:41:56.154Z,1003.37
2022-08-01T04:42:56.145Z,1003.35
2022-08-01T04:43:56.130Z,1003.36
2022-08-01T04:44:56.128Z,1003.42
2022-08-01T04:45:56.110Z,1003.43
2022-08-01T04:46:56.110Z,1003.42
2022-08-01T04:47:56.091Z,1003.44
2022-08-01T04:48:56.101Z,1003.44
2022-08-01T04:49:56.066Z,1003.48
2022-08-01T04:50:56.054Z,1003.49
2022-08-01T04:51:56.042Z,1003.47
2022-08-01T04:52:56.039Z,1003.48
2022-08-01T04:53:56.030Z,1003.49
2022-08-01T04:54:56.010Z,1003.53
2022-08-01T04:55:56.003Z,1003.55
2022-08-01T04:56:56.000Z,1003.53
2022-08-01T04:57:56.008Z,1003.52
2022-08-01T04:58:55.966Z,1003.56
2022-08-01T04:59:55.959Z,1003.54
2022-08-01T05:00:55.960Z,1003.62
2022-08-01T05:01:55.944Z,1003.58
2022-08-01T05:02:55.935Z,1003.6
2022-08-01T05:03:55.912Z,1003.58
2022-08-01T05:04:55.906Z,1003.64
2022-08-01T05:05:55.894Z,1003.6
2022-08-01T05:06:55.886Z,1003.6
2022-08-01T05:07:55.871Z,1003.66
2022-08-01T05:08:55.894Z,1003.7
2022-08-01T05:09:55.849Z,1003.64
2022-08-01T05:10:55.852Z,1003.61
2022-08-01T05:11:55.845Z,1003.63
2022-08-01T05:12:55.820Z,1003.64
2022-08-01T05:13:55.813Z,1003.6
2022-08-01T05:14:55.819Z,1003.61
2022-08-01T05:15:55.790Z,1003.64
2022-08-01T05:16:55.771Z,1003.59
2022-08-01T05:17:55.766Z,1003.64
2022-08-01T05:18:55.756Z,1003.63
2022-08-01T05:19:55.747Z,1003.66
2022-08-01T05:20:55.743Z,1003.62
2022-08-01T05:21:55.726Z,1003.52
2022-08-01T05:22:55.728Z,1003.6
2022-08-01T05:23:55.715Z,1003.63
2022-08-01T05:24:55.690Z,1003.61
2022-08-01T05:25:55.685Z,1003.68
2022-08-01T05:26:55.674Z,1003.58
2022-08-01T05:27:55.663Z,1003.58
2022-08-01T05:28:55.649Z,1003.59
2022-08-01T05:29:55.637Z,1003.62
2022-08-01T05:30:55.658Z,1003.61
2022-08-01T05:31:55.614Z,1003.67
2022-08-01T05:32:55.605Z,1003.65
2022-08-01T05:33:55.601Z,1003.67
2022-08-01T05:34:55.583Z,1003.72
2022-08-01T05:35:55.597Z,1003.69
2022-08-01T05:36:55.559Z,1003.73
2022-08-01T05:37:55.558Z,1003.7
2022-08-01T05:38:55.537Z,1003.73
2022-08-01T05:39:55.529Z,1003.71
2022-08-01T05:40:55.521Z,1003.73
2022-08-01T05:41:55.501Z,1003.81
2022-08-01T05:42:55.508Z,1003.78
2022-08-01T05:43:55.493Z,1003.83
2022-08-01T05:44:55.473Z,1003.81
2022-08-01T05:45:55.475Z,1003.75
2022-08-01T05:46:55.464Z,1003.77
2022-08-01T05:47:55.453Z,1003.8
2022-08-01T05:48:55.439Z,1003.81
2022-08-01T05:49:55.419Z,1003.77
2022-08-01T05:50:55.409Z,1003.76
2022-08-01T05:51:55.398Z,1003.82
2022-08-01T05:52:55.390Z,1003.77
2022-08-01T05:53:55.376Z,1003.81
2022-08-01T05:54:55.361Z,1003.74
2022-08-01T05:55:55.371Z,1003.81
2022-08-01T05:56:55.364Z,1003.81
2022-08-01T05:57:55.334Z,1003.84
2022-08-01T05:58:55.323Z,1003.83
2022-08-01T05:59:55.309Z,1003.87
2022-08-01T06:00:55.297Z,1003.87
2022-08-01T06:01:55.288Z,1003.87
2022-08-01T06:02:55.285Z,1003.83
2022-08-01T06:03:55.266Z,1003.89
2022-08-01T06:04:55.259Z,1003.88
2022-08-01T06:05:55.242Z,1003.88
2022-08-01T06:06:55.244Z,1003.86
2022-08-01T06:07:55.240Z,1003.93
2022-08-01T06:08:55.221Z,1003.88
2022-08-01T06:09:55.204Z,1003.93
2022-08-01T06:10:55.188Z,1003.97
2022-08-01T06:11:55.179Z,1003.97
2022-08-01T06:12:55.173Z,1004.03
2022-08-01T06:13:55.166Z,1004.04
2022-08-01T06:14:55.154Z,1003.99
2022-08-01T06:15:55.154Z,1004.03
2022-08-01T06:16:55.132Z,1004.04
2022-08-01T06:17:55.116Z,1004.03
2022-08-01T06:18:55.106Z,1004.05
2022-08-01T06:19:55.101Z,1004.07
2022-08-01T06:20:55.090Z,1003.99
2022-08-01T06:21:55.075Z,1003.99
2022-08-01T06:22:55.065Z,1004.01
2022-08-01T06:23:55.050Z,1004.04
2022-08-01T06:24:55.041Z,1004.02
2022-08-01T06:25:55.051Z,1004.02
2022-08-01T06:26:55.025Z,1004.07
2022-08-01T06:27:55.008Z,1004.04
2022-08-01T06:28:55.008Z,1004.04
2022-08-01T06:29:54.995Z,1004.1
2022-08-01T06:30:54.984Z,1004.05
2022-08-01T06:31:54.963Z,1004.02
2022-08-01T06:32:54.962Z,1004
2022-08-01T06:33:54.945Z,1004.04
2022-08-01T06:34:54.936Z,1004.11
2022-08-01T06:35:54.936Z,1004.03
2022-08-01T06:36:54.924Z,1004.09
2022-08-01T06:37:54.905Z,1004.14
2022-08-01T06:38:54.895Z,1004.09
2022-08-01T06:39:54.892Z,1004.07
2022-08-01T06:40:54.880Z,1004.12
2022-08-01T06:41:54.861Z,1004.12
2022-08-01T06:42:54.868Z,1004.12
2022-08-01T06:43:54.836Z,1004.08
2022-08-01T06:44:54.830Z,1004.08
2022-08-01T06:45:54.831Z,1004.11
2022-08-01T06:46:54.811Z,1004.11
2022-08-01T06:47:54.792Z,1004.01
2022-08-01T06:48:54.786Z,1004.06
2022-08-01T06:49:54.770Z,1004.1
2022-08-01T06:50:54.757Z,1004.07
2022-08-01T06:51:54.753Z,1004.1
2022-08-01T06:52:54.743Z,1004.18
2022-08-01T06:53:54.728Z,1004.07
2022-08-01T06:54:54.717Z,1004.11
2022-08-01T06:55:54.710Z,1004.13
2022-08-01T06:56:54.693Z,1004.17
2022-08-01T06:57:54.722Z,1004.15
2022-08-01T06:58:54.674Z,1004.1
2022-08-01T06:59:54.673Z,1004.17
2022-08-01T07:00:54.657Z,1004.12
2022-08-01T07:01:54.637Z,1004.11
2022-08-01T07:02:54.631Z,1004.15
2022-08-01T07:03:54.653Z,1004.15
2022-08-01T07:04:54.616Z,1004.15
2022-08-01T07:05:54.599Z,1004.16
2022-08-01T07:06:54.589Z,1004.16
2022-08-01T07:07:54.579Z,1004.14
2022-08-01T07:08:54.568Z,1004.17
2022-08-01T07:09:54.559Z,1004.18
2022-08-01T07:10:54.541Z,1004.12
2022-08-01T07:11:54.530Z,1004.17
2022-08-01T07:12:54.522Z,1004.13
2022-08-01T07:13:54.512Z,1004.13
2022-08-01T07:14:54.512Z,1004.15
2022-08-01T07:15:54.489Z,1004.16
2022-08-01T07:16:54.481Z,1004.13
2022-08-01T07:17:54.469Z,1004.15
2022-08-01T07:18:54.470Z,1004.17
2022-08-01T07:19:54.445Z,1004.15
2022-08-01T07:20:54.444Z,1004.15
2022-08-01T07:21:54.426Z,1004.2
2022-08-01T07:22:54.420Z,1004.14
2022-08-01T07:23:54.408Z,1004.16
2022-08-01T07:24:54.392Z,1004.18
2022-08-01T07:25:54.388Z,1004.19
2022-08-01T07:26:54.370Z,1004.19
2022-08-01T07:27:54.362Z,1004.23
2022-08-01T07:28:54.348Z,1004.21
2022-08-01T07:29:54.341Z,1004.15
2022-08-01T07:30:54.335Z,1004.12
2022-08-01T07:31:54.335Z,1004.18
2022-08-01T07:32:54.305Z,1004.23
2022-08-01T07:33:54.295Z,1004.16
2022-08-01T07:34:54.301Z,1004.2
2022-08-01T07:35:54.388Z,1004.22
2022-08-01T07:36:54.263Z,1004.15
2022-08-01T07:37:54.260Z,1004.27
2022-08-01T07:38:54.315Z,1004.24
2022-08-01T07:39:54.230Z,1004.23
2022-08-01T07:40:54.219Z,1004.28
2022-08-01T07:41:54.207Z,1004.27
2022-08-01T07:42:54.200Z,1004.29
2022-08-01T07:43:54.189Z,1004.26
2022-08-01T07:44:54.209Z,1004.35
2022-08-01T07:45:54.176Z,1004.32
2022-08-01T07:46:54.161Z,1004.35
2022-08-01T07:47:54.151Z,1004.29
2022-08-01T07:48:54.141Z,1004.4
2022-08-01T07:49:54.132Z,1004.41
2022-08-01T07:50:54.109Z,1004.36
2022-08-01T07:51:54.107Z,1004.39
2022-08-01T07:52:54.095Z,1004.39
2022-08-01T07:53:54.099Z,1004.42
2022-08-01T07:54:54.079Z,1004.43
2022-08-01T07:55:54.061Z,1004.44
2022-08-01T07:56:54.068Z,1004.4
2022-08-01T07:57:54.056Z,1004.41
2022-08-01T07:58:54.032Z,1004.36
2022-08-01T07:59:54.026Z,1004.38
2022-08-01T08:00:54.009Z,1004.43
2022-08-01T08:01:53.995Z,1004.44
2022-08-01T08:02:54.000Z,1004.51
2022-08-01T08:03:53.974Z,1004.45
2022-08-01T08:04:53.965Z,1004.39
2022-08-01T08:05:53.958Z,1004.42
2022-08-01T08:06:53.940Z,1004.39
2022-08-01T08:07:53.935Z,1004.42
2022-08-01T08:08:53.954Z,1004.44
2022-08-01T08:09:53.910Z,1004.51
2022-08-01T08:10:53.903Z,1004.53
2022-08-01T08:11:53.889Z,1004.51
2022-08-01T08:12:53.885Z,1004.54
2022-08-01T08:13:53.864Z,1004.51
2022-08-01T08:14:53.859Z,1004.49
2022-08-01T08:15:53.847Z,1004.45
2022-08-01T08:16:53.832Z,1004.5
2022-08-01T08:17:53.828Z,1004.54
2022-08-01T08:18:53.813Z,1004.52
2022-08-01T08:19:53.801Z,1004.54
2022-08-01T08:20:53.816Z,1004.52
2022-08-01T08:21:53.777Z,1004.56
2022-08-01T08:22:53.772Z,1004.58
2022-08-01T08:23:53.820Z,1004.56
2022-08-01T08:24:53.746Z,1004.52
2022-08-01T08:25:53.746Z,1004.59
2022-08-01T08:26:53.728Z,1004.54
2022-08-01T08:27:53.717Z,1004.54
2022-08-01T08:28:53.708Z,1004.53
2022-08-01T08:29:53.690Z,1004.61
2022-08-01T08:30:53.679Z,1004.6
2022-08-01T08:31:53.736Z,1004.57
2022-08-01T08:32:53.671Z,1004.58
2022-08-01T08:33:53.676Z,1004.54
2022-08-01T08:34:53.641Z,1004.55
2022-08-01T08:35:53.629Z,1004.61
2022-08-01T08:36:53.618Z,1004.6
2022-08-01T08:37:53.601Z,1004.56
2022-08-01T08:38:53.593Z,1004.65
2022-08-01T08:39:53.579Z,1004.62
2022-08-01T08:40:53.584Z,1004.59
2022-08-01T08:41:53.558Z,1004.59
2022-08-01T08:42:53.550Z,1004.65
2022-08-01T08:43:53.579Z,1004.63
2022-08-01T08:44:53.535Z,1004.64
2022-08-01T08:45:53.519Z,1004.68
2022-08-01T08:46:53.555Z,1004.66
2022-08-01T08:47:53.514Z,1004.59
2022-08-01T08:48:53.479Z,1004.63
2022-08-01T08:49:53.474Z,1004.61
2022-08-01T08:50:53.462Z,1004.61
2022-08-01T08:51:53.478Z,1004.65
2022-08-01T08:52:53.440Z,1004.65
2022-08-01T08:53:53.474Z,1004.65
2022-08-01T08:54:53.425Z,1004.68
2022-08-01T08:55:53.492Z,1004.67
2022-08-01T08:56:53.399Z,1004.7
2022-08-01T08:57:53.407Z,1004.73
2022-08-01T08:58:54.744Z,1004.7
2022-08-01T08:59:53.375Z,1004.75
2022-08-01T09:00:54.045Z,1004.75
2022-08-01T09:01:53.345Z,1004.75
2022-08-01T09:02:53.332Z,1004.75
2022-08-01T09:03:53.322Z,1004.73
2022-08-01T09:04:53.314Z,1004.75
2022-08-01T09:05:53.303Z,1004.71
2022-08-01T09:06:53.299Z,1004.78
2022-08-01T09:07:53.283Z,1004.77
2022-08-01T09:08:53.301Z,1004.85
2022-08-01T09:09:53.262Z,1004.83
2022-08-01T09:10:53.248Z,1004.84
2022-08-01T09:11:53.237Z,1004.81
2022-08-01T09:12:53.251Z,1004.95
2022-08-01T09:13:53.221Z,1004.94
2022-08-01T09:14:53.204Z,1004.92
2022-08-01T09:15:53.191Z,1004.95
2022-08-01T09:16:53.206Z,1004.95
2022-08-01T09:17:53.177Z,1004.9
2022-08-01T09:18:53.165Z,1004.99
2022-08-01T09:19:53.161Z,1004.91
2022-08-01T09:20:53.147Z,1005.03
2022-08-01T09:21:53.399Z,1004.97
2022-08-01T09:22:53.128Z,1005.02
2022-08-01T09:23:53.108Z,1005
2022-08-01T09:24:53.101Z,1005.03
2022-08-01T09:25:53.101Z,1005.06
2022-08-01T09:26:53.091Z,1005.08
2022-08-01T09:27:53.067Z,1005.09
2022-08-01T09:28:53.080Z,1005.1
2022-08-01T09:29:53.257Z,1005.12
2022-08-01T09:30:53.032Z,1005.03
2022-08-01T09:31:53.020Z,1005.02
2022-08-01T09:32:53.009Z,1005.07
2022-08-01T09:33:53.017Z,1005.05
2022-08-01T09:34:52.996Z,1005.11
2022-08-01T09:35:52.982Z,1005.08
2022-08-01T09:36:52.971Z,1005.1
2022-08-01T09:37:52.989Z,1005.12
2022-08-01T09:38:52.952Z,1005.12
2022-08-01T09:39:52.943Z,1005.13
2022-08-01T09:40:52.925Z,1005.14
2022-08-01T09:41:52.936Z,1005.12
2022-08-01T09:42:52.917Z,1005.06
2022-08-01T09:43:52.900Z,1005.13
2022-08-01T09:44:52.888Z,1005.17
2022-08-01T09:45:52.881Z,1005.19
2022-08-01T09:46:52.863Z,1005.14
2022-08-01T09:47:52.859Z,1005.22
2022-08-01T09:48:52.894Z,1005.17
2022-08-01T09:49:52.846Z,1005.1
2022-08-01T09:50:52.828Z,1005.13
2022-08-01T09:51:52.829Z,1005.18
2022-08-01T09:52:52.801Z,1005.22
2022-08-01T09:53:52.789Z,1005.19
2022-08-01T09:54:52.780Z,1005.16
2022-08-01T09:55:52.859Z,1005.18
2022-08-01T09:56:52.776Z,1005.23
2022-08-01T09:57:52.750Z,1005.21
2022-08-01T09:58:52.746Z,1005.2
2022-08-01T09:59:52.725Z,1005.16
2022-08-01T10:00:52.737Z,1005.17
2022-08-01T10:01:52.720Z,1005.21
2022-08-01T10:02:52.711Z,1005.23
2022-08-01T10:03:52.681Z,1005.21
2022-08-01T10:04:52.679Z,1005.18
2022-08-01T10:05:52.676Z,1005.22
2022-08-01T10:06:52.653Z,1005.21
2022-08-01T10:07:52.641Z,1005.13
2022-08-01T10:08:52.636Z,1005.13
2022-08-01T10:09:52.643Z,1005.15
2022-08-01T10:10:52.616Z,1005.16
2022-08-01T10:11:52.621Z,1005.24
2022-08-01T10:12:52.644Z,1005.17
2022-08-01T10:13:52.576Z,1005.23
2022-08-01T10:14:52.586Z,1005.22
2022-08-01T10:15:52.552Z,1005.22
2022-08-01T10:16:52.551Z,1005.19
2022-08-01T10:17:52.539Z,1005.17
2022-08-01T10:18:52.519Z,1005.16
2022-08-01T10:19:52.517Z,1005.23
2022-08-01T10:20:52.527Z,1005.27
2022-08-01T10:21:52.491Z,1005.23
2022-08-01T10:22:52.479Z,1005.22
2022-08-01T10:23:52.517Z,1005.19
2022-08-01T10:24:52.463Z,1005.22
2022-08-01T10:25:52.449Z,1005.19
2022-08-01T10:26:52.438Z,1005.23
2022-08-01T10:27:52.566Z,1005.23
2022-08-01T10:28:52.416Z,1005.24
2022-08-01T10:29:52.404Z,1005.19
2022-08-01T10:30:52.395Z,1005.1
2022-08-01T10:31:52.386Z,1005.16
2022-08-01T10:32:52.385Z,1005.16
2022-08-01T10:33:52.373Z,1005.14
2022-08-01T10:34:52.358Z,1005.12
2022-08-01T10:35:52.374Z,1005.06
2022-08-01T10:36:52.331Z,1005.09
2022-08-01T10:37:52.347Z,1005.08
2022-08-01T10:38:52.313Z,1005.13
2022-08-01T10:39:52.351Z,1005.1
2022-08-01T10:40:52.291Z,1005.16
2022-08-01T10:41:52.280Z,1005.17
2022-08-01T10:42:52.278Z,1005.14
2022-08-01T10:43:52.260Z,1005.12
2022-08-01T10:44:52.262Z,1005.05
2022-08-01T10:45:52.238Z,1005.13
2022-08-01T10:46:52.227Z,1005.09
2022-08-01T10:47:52.225Z,1005.19
2022-08-01T10:48:52.214Z,1005.09
2022-08-01T10:49:52.195Z,1005.12
2022-08-01T10:50:52.184Z,1005.09
2022-08-01T10:51:52.196Z,1005.09
2022-08-01T10:52:52.174Z,1005.12
2022-08-01T10:53:52.151Z,1005.07
2022-08-01T10:54:52.142Z,1005.09
2022-08-01T10:55:52.140Z,1005.16
2022-08-01T10:56:52.129Z,1005.16
2022-08-01T10:57:52.119Z,1005.19
2022-08-01T10:58:52.100Z,1005.24
2022-08-01T10:59:52.087Z,1005.14
2022-08-01T11:00:52.090Z,1005.13
2022-08-01T11:01:52.068Z,1005.12
2022-08-01T11:02:52.062Z,1005.1
2022-08-01T11:03:52.051Z,1005.05
2022-08-01T11:04:52.037Z,1005.1
2022-08-01T11:05:52.027Z,1004.99
2022-08-01T11:06:52.029Z,1005.04
2022-08-01T11:07:52.009Z,1005.02
2022-08-01T11:08:51.992Z,1005.04
2022-08-01T11:09:51.985Z,1005.02
2022-08-01T11:10:51.979Z,1005.06
2022-08-01T11:11:51.987Z,1005.03
2022-08-01T11:12:51.945Z,1005.05
2022-08-01T11:13:51.934Z,1005.16
2022-08-01T11:14:51.934Z,1005.19
2022-08-01T11:15:51.933Z,1005.21
2022-08-01T11:16:51.918Z,1005.19
2022-08-01T11:17:51.891Z,1005.07
2022-08-01T11:18:51.960Z,1005.13
2022-08-01T11:19:51.879Z,1005.11
2022-08-01T11:20:51.866Z,1005.17
2022-08-01T11:21:51.851Z,1005.17
2022-08-01T11:22:51.841Z,1005.19
2022-08-01T11:23:51.839Z,1005.2
2022-08-01T11:24:51.816Z,1005.18
2022-08-01T11:25:51.816Z,1005.15
2022-08-01T11:26:51.806Z,1005.24
2022-08-01T11:27:51.787Z,1005.22
2022-08-01T11:28:51.770Z,1005.25
2022-08-01T11:29:51.770Z,1005.26
2022-08-01T11:30:51.766Z,1005.26
2022-08-01T11:31:51.737Z,1005.24
2022-08-01T11:32:51.752Z,1005.27
2022-08-01T11:33:51.759Z,1005.23
2022-08-01T11:34:52.582Z,1005.3
2022-08-01T11:35:51.703Z,1005.29
2022-08-01T11:36:51.687Z,1005.29
2022-08-01T11:37:51.682Z,1005.3
2022-08-01T11:38:51.671Z,1005.33
2022-08-01T11:39:51.666Z,1005.33
2022-08-01T11:40:51.655Z,1005.29
2022-08-01T11:41:51.657Z,1005.29
2022-08-01T11:42:51.623Z,1005.26
2022-08-01T11:43:51.624Z,1005.31
2022-08-01T11:44:51.736Z,1005.23
2022-08-01T11:45:51.606Z,1005.29
2022-08-01T11:46:51.582Z,1005.24
2022-08-01T11:47:51.579Z,1005.35
2022-08-01T11:48:51.565Z,1005.36
2022-08-01T11:49:51.576Z,1005.3
2022-08-01T11:50:51.540Z,1005.32
2022-08-01T11:51:51.527Z,1005.25
2022-08-01T11:52:51.545Z,1005.26
2022-08-01T11:53:51.533Z,1005.28
2022-08-01T11:54:51.520Z,1005.23
2022-08-01T11:55:51.513Z,1005.28
2022-08-01T11:56:51.484Z,1005.26
2022-08-01T11:57:51.518Z,1005.25
2022-08-01T11:58:51.457Z,1005.26
2022-08-01T11:59:51.442Z,1005.25
2022-08-01T12:00:51.467Z,1005.26
2022-08-01T12:01:51.423Z,1005.25
2022-08-01T12:02:51.419Z,1005.26
2022-08-01T12:03:51.414Z,1005.31
2022-08-01T12:04:51.393Z,1005.29
2022-08-01T12:05:51.381Z,1005.27
2022-08-01T12:06:51.398Z,1005.3
2022-08-01T12:07:51.371Z,1005.38
2022-08-01T12:08:51.348Z,1005.3